地図

経路データ

SID SEASON NUMBER BASIN SUBBASIN NAME ISO_TIME NATURE LAT LON WMO_WIND WMO_PRES WMO_AGENCY TRACK_TYPE DIST2LAND LANDFALL IFLAG USA_AGENCY USA_ATCF_ID USA_LAT USA_LON USA_RECORD USA_STATUS USA_WIND USA_PRES USA_SSHS USA_R34_NE USA_R34_SE USA_R34_SW USA_R34_NW USA_R50_NE USA_R50_SE USA_R50_SW USA_R50_NW USA_R64_NE USA_R64_SE USA_R64_SW USA_R64_NW USA_POCI USA_ROCI USA_RMW USA_EYE TOKYO_LAT TOKYO_LON TOKYO_GRADE TOKYO_WIND TOKYO_PRES TOKYO_R50_DIR TOKYO_R50_LONG TOKYO_R50_SHORT TOKYO_R30_DIR TOKYO_R30_LONG TOKYO_R30_SHORT TOKYO_LAND CMA_LAT CMA_LON CMA_CAT CMA_WIND CMA_PRES HKO_LAT HKO_LON HKO_CAT HKO_WIND HKO_PRES NEWDELHI_LAT NEWDELHI_LON NEWDELHI_GRADE NEWDELHI_WIND NEWDELHI_PRES NEWDELHI_CI NEWDELHI_DP NEWDELHI_POCI REUNION_LAT REUNION_LON REUNION_TYPE REUNION_WIND REUNION_PRES REUNION_TNUM REUNION_CI REUNION_RMW REUNION_R34_NE REUNION_R34_SE REUNION_R34_SW REUNION_R34_NW REUNION_R50_NE REUNION_R50_SE REUNION_R50_SW REUNION_R50_NW REUNION_R64_NE REUNION_R64_SE REUNION_R64_SW REUNION_R64_NW BOM_LAT BOM_LON BOM_TYPE BOM_WIND BOM_PRES BOM_TNUM BOM_CI BOM_RMW BOM_R34_NE BOM_R34_SE BOM_R34_SW BOM_R34_NW BOM_R50_NE BOM_R50_SE BOM_R50_SW BOM_R50_NW BOM_R64_NE BOM_R64_SE BOM_R64_SW BOM_R64_NW BOM_ROCI BOM_POCI BOM_EYE BOM_POS_METHOD BOM_PRES_METHOD NADI_LAT NADI_LON NADI_CAT NADI_WIND NADI_PRES WELLINGTON_LAT WELLINGTON_LON WELLINGTON_WIND WELLINGTON_PRES DS824_LAT DS824_LON DS824_STAGE DS824_WIND DS824_PRES TD9636_LAT TD9636_LON TD9636_STAGE TD9636_WIND TD9636_PRES TD9635_LAT TD9635_LON TD9635_WIND TD9635_PRES TD9635_ROCI NEUMANN_LAT NEUMANN_LON NEUMANN_CLASS NEUMANN_WIND NEUMANN_PRES MLC_LAT MLC_LON MLC_CLASS MLC_WIND MLC_PRES USA_GUST BOM_GUST BOM_GUST_PER REUNION_GUST REUNION_GUST_PER USA_SEAHGT USA_SEARAD_NE USA_SEARAD_SE USA_SEARAD_SW USA_SEARAD_NW STORM_SPEED STORM_DIR
1923050S12152 1923 13 SP EA NOT_NAMED 1923-02-18 12:00:00 NR -11.6000 152.100 main 189 189 __________O___ -1 -11.6000 152.100 7 1 222
1923050S12152 1923 13 SP EA NOT_NAMED 1923-02-18 15:00:00 NR -11.6296 152.092 main 189 189 __________P___ -1 -11.6296 152.092 7 1 212
1923050S12152 1923 13 SP EA NOT_NAMED 1923-02-18 18:00:00 NR -11.6674 152.057 main 196 187 __________P___ -1 -11.6674 152.057 7 2 232
1923050S12152 1923 13 SP EA NOT_NAMED 1923-02-18 21:00:00 NR -11.7215 151.969 main 187 179 __________P___ -1 -11.7215 151.969 7 3 242
1923050S12152 1923 13 SP EA NOT_NAMED 1923-02-19 00:00:00 NR -11.8000 151.800 main 180 169 __________O___ -1 -11.8000 151.800 7 5 246
1923050S12152 1923 13 SP EA NOT_NAMED 1923-02-19 03:00:00 NR -11.9075 151.532 main 169 164 __________P___ -1 -11.9075 151.532 7 7 249
1923050S12152 1923 13 SP EA NOT_NAMED 1923-02-19 06:00:00 NR -12.0350 151.178 main 166 162 __________P___ -1 -12.0350 151.178 7 8 251
1923050S12152 1923 13 SP EA NOT_NAMED 1923-02-19 09:00:00 NR -12.1699 150.760 main 173 168 __________P___ -1 -12.1699 150.760 7 9 253
1923050S12152 1923 13 SP EA NOT_NAMED 1923-02-19 12:00:00 NR -12.3000 150.300 main 179 179 __________O___ -1 -12.3000 150.300 7 9 254
1923050S12152 1923 13 SP EA NOT_NAMED 1923-02-19 15:00:00 NR -12.4235 149.832 main 195 195 __________P___ -1 -12.4235 149.832 7 10 256
1923050S12152 1923 13 SP EA NOT_NAMED 1923-02-19 18:00:00 NR -12.5376 149.330 main 222 222 __________P___ -1 -12.5376 149.330 7 10 258
1923050S12152 1923 13 SP EA NOT_NAMED 1923-02-19 21:00:00 NR -12.6328 148.813 main 254 254 __________P___ -1 -12.6328 148.813 7 10 261
1923050S12152 1923 13 SP EA NOT_NAMED 1923-02-20 00:00:00 NR -12.7000 148.300 main 279 279 __________O___ -1 -12.7000 148.300 7 10 264
1923050S12152 1923 13 SP EA NOT_NAMED 1923-02-20 03:00:00 NR -12.7364 147.826 main 280 280 __________P___ -1 -12.7364 147.826 7 9 267
1923050S12152 1923 13 SP EA NOT_NAMED 1923-02-20 06:00:00 NR -12.7444 147.357 main 287 287 __________P___ -1 -12.7444 147.357 7 9 270
1923050S12152 1923 13 SP EA NOT_NAMED 1923-02-20 09:00:00 NR -12.7302 146.885 main 303 272 __________P___ -1 -12.7302 146.885 7 9 273
1923050S12152 1923 13 SP EA NOT_NAMED 1923-02-20 12:00:00 NR -12.7000 146.400 main 272 250 __________O___ -1 -12.7000 146.400 7 9 278
1923050S12152 1923 13 SP EA NOT_NAMED 1923-02-20 15:00:00 NR -12.6103 145.953 main 250 221 __________P___ -1 -12.6103 145.953 7 9 282
1923050S12152 1923 13 SP EA NOT_NAMED 1923-02-20 18:00:00 NR -12.5155 145.483 main 221 168 __________P___ -1 -12.5155 145.483 7 10 279
1923050S12152 1923 13 SP EA NOT_NAMED 1923-02-20 21:00:00 NR -12.4630 144.946 main 158 97 __________P___ -1 -12.4630 144.946 7 12 271
1923050S12152 1923 13 SP EA NOT_NAMED 1923-02-21 00:00:00 NR -12.5000 144.300 main 97 10 __________O___ -1 -12.5000 144.300 7 14 262
1923050S12152 1923 13 SP EA NOT_NAMED 1923-02-21 03:00:00 NR -12.6582 143.478 main 10 0 __________P___ -1 -12.6582 143.478 7 18 257
1923050S12152 1923 13 SP EA NOT_NAMED 1923-02-21 06:00:00 NR -12.9089 142.548 main 0 0 __________P___ -1 -12.9089 142.548 7 20 253
1923050S12152 1923 13 SP EA NOT_NAMED 1923-02-21 09:00:00 NR -13.2299 141.568 main 10 10 __________P___ -1 -13.2299 141.568 7 20 250
1923050S12152 1923 13 SP EA NOT_NAMED 1923-02-21 12:00:00 NR -13.6000 140.600 main 102 102 __________O___ -1 -13.6000 140.600 7 20 247
1923050S12152 1923 13 SP EA NOT_NAMED 1923-02-21 15:00:00 NR -14.0144 139.669 main 194 194 __________P___ -1 -14.0144 139.669 7 20 244
1923050S12152 1923 13 SP EA NOT_NAMED 1923-02-21 18:00:00 NR -14.4653 138.767 main 195 126 __________P___ -1 -14.4653 138.767 7 19 242
1923050S12152 1923 13 SP EA NOT_NAMED 1923-02-21 21:00:00 NR -14.9085 137.932 main 117 77 __________P___ -1 -14.9085 137.932 7 17 241
1923050S12152 1923 13 SP EA NOT_NAMED 1923-02-22 00:00:00 NR -15.3000 137.200 main 77 22 __________O___ -1 -15.3000 137.200 7 14 241
1923050S12152 1923 13 SP EA NOT_NAMED 1923-02-22 03:00:00 NR -15.6008 136.624 main 15 0 __________P___ -1 -15.6008 136.624 7 12 242
1923050S12152 1923 13 SP EA NOT_NAMED 1923-02-22 06:00:00 NR -15.8449 136.151 main 0 0 __________P___ -1 -15.8449 136.151 7 10 243
1923050S12152 1923 13 SP EA NOT_NAMED 1923-02-22 09:00:00 NR -16.0418 135.728 main 0 0 __________P___ -1 -16.0418 135.728 7 9 247
1923050S12152 1923 13 SP EA NOT_NAMED 1923-02-22 12:00:00 NR -16.2000 135.300 main 0 0 __________O___ -1 -16.2000 135.300 7 10 249
1923050S12152 1923 13 SI WA NOT_NAMED 1923-02-22 15:00:00 NR -16.3842 134.802 main 0 0 __________P___ -1 -16.3842 134.802 7 10 251
1923050S12152 1923 13 SI WA NOT_NAMED 1923-02-22 18:00:00 NR -16.5268 134.288 main 0 0 __________P___ -1 -16.5268 134.288 7 10 258
1923050S12152 1923 13 SI WA NOT_NAMED 1923-02-22 21:00:00 NR -16.6060 133.755 main 0 0 __________P___ -1 -16.6060 133.755 7 10 266
1923050S12152 1923 13 SI WA NOT_NAMED 1923-02-23 00:00:00 NR -16.6000 133.200 main 0 0 __________O___ -1 -16.6000 133.200 7 11 274
1923050S12152 1923 13 SI WA NOT_NAMED 1923-02-23 03:00:00 NR -16.5346 132.626 main 0 0 __________P___ -1 -16.5346 132.626 7 11 281
1923050S12152 1923 13 SI WA NOT_NAMED 1923-02-23 06:00:00 NR -16.3795 132.030 main 0 0 __________P___ -1 -16.3795 132.030 7 12 289
1923050S12152 1923 13 SI WA NOT_NAMED 1923-02-23 09:00:00 NR -16.1346 131.420 main 0 0 __________P___ -1 -16.1346 131.420 7 13 296
1923050S12152 1923 13 SI WA NOT_NAMED 1923-02-23 12:00:00 NR -15.8000 130.800 main 0 0 __________O___ -1 -15.8000 130.800 7 15 303
1923050S12152 1923 13 SI WA NOT_NAMED 1923-02-23 15:00:00 NR -15.3419 130.136 main 0 0 __________P___ -1 -15.3419 130.136 7 16 308
1923050S12152 1923 13 SI WA NOT_NAMED 1923-02-23 18:00:00 NR -14.8081 129.473 main 15 15 __________P___ -1 -14.8081 129.473 7 16 311
1923050S12152 1923 13 SI WA NOT_NAMED 1923-02-23 21:00:00 NR -14.2701 128.848 main 64 64 __________P___ -1 -14.2701 128.848 7 15 312
1923050S12152 1923 13 SI WA NOT_NAMED 1923-02-24 00:00:00 NR -13.8000 128.300 main 78 70 __________O___ -1 -13.8000 128.300 7 12 309
1923050S12152 1923 13 SI WA NOT_NAMED 1923-02-24 03:00:00 NR -13.4991 127.881 main 77 70 __________P___ -1 -13.4991 127.881 7 9 305
1923050S12152 1923 13 SI WA NOT_NAMED 1923-02-24 06:00:00 NR -13.2739 127.535 main 70 70 __________P___ -1 -13.2739 127.535 7 8 303
1923050S12152 1923 13 SI WA NOT_NAMED 1923-02-24 09:00:00 NR -13.0868 127.221 main 79 79 __________P___ -1 -13.0868 127.221 7 7 301
1923050S12152 1923 13 SI WA NOT_NAMED 1923-02-24 12:00:00 NR -12.9000 126.900 main 100 100 __________O___ -1 -12.9000 126.900 7 8 306
1923050S12152 1923 13 SI WA NOT_NAMED 1923-02-24 15:00:00 NR -12.6120 126.551 main 138 138 __________P___ -1 -12.6120 126.551 7 9 309
1923050S12152 1923 13 SI WA NOT_NAMED 1923-02-24 18:00:00 NR -12.3242 126.182 main 184 184 __________P___ -1 -12.3242 126.182 7 9 305
1923050S12152 1923 13 SI WA NOT_NAMED 1923-02-24 21:00:00 NR -12.0743 125.772 main 215 215 __________P___ -1 -12.0743 125.772 7 10 296
1923050S12152 1923 13 SI WA NOT_NAMED 1923-02-25 00:00:00 NR -11.9000 125.300 main 219 189 __________O___ -1 -11.9000 125.300 7 11 284
1923050S12152 1923 13 SI WA NOT_NAMED 1923-02-25 03:00:00 NR -11.8179 124.728 main 184 160 __________P___ -1 -11.8179 124.728 7 12 274
1923050S12152 1923 13 SI WA NOT_NAMED 1923-02-25 06:00:00 NR -11.8155 124.095 main 160 156 __________P___ -1 -11.8155 124.095 7 13 267
1923050S12152 1923 13 SI WA NOT_NAMED 1923-02-25 09:00:00 NR -11.8803 123.440 main 168 168 __________P___ -1 -11.8803 123.440 7 13 262
1923050S12152 1923 13 SI WA NOT_NAMED 1923-02-25 12:00:00 NR -12.0000 122.800 main 194 194 __________O___ -1 -12.0000 122.800 7 12 258
1923050S12152 1923 13 SI WA NOT_NAMED 1923-02-25 15:00:00 NR -12.1452 122.217 main 237 237 __________P___ -1 -12.1452 122.217 7 12 253
1923050S12152 1923 13 SI WA NOT_NAMED 1923-02-25 18:00:00 NR -12.3395 121.655 main 259 254 __________P___ -1 -12.3395 121.655 7 12 249
1923050S12152 1923 13 SI WA NOT_NAMED 1923-02-25 21:00:00 NR -12.5641 121.116 main 265 261 __________P___ -1 -12.5641 121.116 7 11 246
1923050S12152 1923 13 SI WA NOT_NAMED 1923-02-26 00:00:00 NR -12.8000 120.600 main 280 279 __________O___ -1 -12.8000 120.600 7 11 246
1923050S12152 1923 13 SI WA NOT_NAMED 1923-02-26 03:00:00 NR -13.0093 120.099 main 305 305 __________P___ -1 -13.0093 120.099 7 10 246
1923050S12152 1923 13 SI WA NOT_NAMED 1923-02-26 06:00:00 NR -13.2270 119.620 main 339 339 __________P___ -1 -13.2270 119.620 7 10 244
1923050S12152 1923 13 SI WA NOT_NAMED 1923-02-26 09:00:00 NR -13.4562 119.155 main 385 385 __________P___ -1 -13.4562 119.155 7 10 242
1923050S12152 1923 13 SI WA NOT_NAMED 1923-02-26 12:00:00 NR -13.7000 118.700 main 424 424 __________O___ -1 -13.7000 118.700 7 10 241
1923050S12152 1923 13 SI WA NOT_NAMED 1923-02-26 15:00:00 NR -13.9270 118.294 main 463 463 __________P___ -1 -13.9270 118.294 7 9 239
1923050S12152 1923 13 SI WA NOT_NAMED 1923-02-26 18:00:00 NR -14.1733 117.888 main 513 513 __________P___ -1 -14.1733 117.888 7 10 237
1923050S12152 1923 13 SI WA NOT_NAMED 1923-02-26 21:00:00 NR -14.4580 117.437 main 568 568 __________P___ -1 -14.4580 117.437 7 11 237
1923050S12152 1923 13 SI WA NOT_NAMED 1923-02-27 00:00:00 NR -14.8000 116.900 main 619 605 __________O___ -1 -14.8000 116.900 7 14 238
1923050S12152 1923 13 SI WA NOT_NAMED 1923-02-27 03:00:00 NR -15.1938 116.214 main 606 571 __________P___ -1 -15.1938 116.214 7 16 239
1923050S12152 1923 13 SI WA NOT_NAMED 1923-02-27 06:00:00 NR -15.6460 115.439 main 576 541 __________P___ -1 -15.6460 115.439 7 18 238
1923050S12152 1923 13 SI WA NOT_NAMED 1923-02-27 09:00:00 NR -16.1500 114.620 main 550 528 __________P___ -1 -16.1500 114.620 7 19 236
1923050S12152 1923 13 SI WA NOT_NAMED 1923-02-27 12:00:00 NR -16.7000 113.800 main 532 523 __________O___ -1 -16.7000 113.800 7 19 236
1923050S12152 1923 13 SI WA NOT_NAMED 1923-02-27 15:00:00 NR -17.2297 112.978 main 532 495 __________P___ -1 -17.2297 112.978 7 19 235
1923050S12152 1923 13 SI WA NOT_NAMED 1923-02-27 18:00:00 NR -17.8087 112.172 main 495 470 __________P___ -1 -17.8087 112.172 7 19 230
1923050S12152 1923 13 SI WA NOT_NAMED 1923-02-27 21:00:00 NR -18.4582 111.431 main 467 449 __________P___ -1 -18.4582 111.431 7 19 223
1923050S12152 1923 13 SI WA NOT_NAMED 1923-02-28 00:00:00 NR -19.2000 110.800 main 449 438 __________O___ -1 -19.2000 110.800 7 19 215
1923050S12152 1923 13 SI WA NOT_NAMED 1923-02-28 03:00:00 NR -20.0473 110.255 main 438 426 __________P___ -1 -20.0473 110.255 7 20 207
1923050S12152 1923 13 SI WA NOT_NAMED 1923-02-28 06:00:00 NR -20.9863 109.833 main 431 418 __________P___ -1 -20.9863 109.833 7 21 199
1923050S12152 1923 13 SI WA NOT_NAMED 1923-02-28 09:00:00 NR -21.9822 109.544 main 426 420 __________P___ -1 -21.9822 109.544 7 21 191
1923050S12152 1923 13 SI WA NOT_NAMED 1923-02-28 12:00:00 NR -23.0000 109.400 main 429 419 __________O___ -1 -23.0000 109.400 7 20 187
1923050S12152 1923 13 SI WA NOT_NAMED 1923-02-28 15:00:00 NR -23.9589 109.285 main 417 414 __________P___ -1 -23.9589 109.285 7 19 182
1923050S12152 1923 13 SI WA NOT_NAMED 1923-02-28 18:00:00 NR -24.9361 109.327 main 417 380 __________P___ -1 -24.9361 109.327 7 20 173
1923050S12152 1923 13 SI WA NOT_NAMED 1923-02-28 21:00:00 NR -25.9454 109.555 main 370 334 __________P___ -1 -25.9454 109.555 7 22 164
1923050S12152 1923 13 SI WA NOT_NAMED 1923-03-01 00:00:00 NR -27.0000 110.000 main 336 326 __________O___ -1 -27.0000 110.000 7 24 156
1923050S12152 1923 13 SI WA NOT_NAMED 1923-03-01 03:00:00 NR -28.1261 110.621 main 333 299 __________P___ -1 -28.1261 110.621 7 26 150
1923050S12152 1923 13 SI WA NOT_NAMED 1923-03-01 06:00:00 NR -29.2901 111.470 main 295 251 __________P___ -1 -29.2901 111.470 7 29 145
1923050S12152 1923 13 SI WA NOT_NAMED 1923-03-01 09:00:00 NR -30.4589 112.510 main 246 174 __________P___ -1 -30.4589 112.510 7 30 140
1923050S12152 1923 13 SI WA NOT_NAMED 1923-03-01 12:00:00 NR -31.6000 113.700 main 170 65 __________O___ -1 -31.6000 113.700 7 31 138
1923050S12152 1923 13 SI WA NOT_NAMED 1923-03-01 15:00:00 NR -32.7185 114.921 main 65 0 __________P___ -1 -32.7185 114.921 7 31 135
1923050S12152 1923 13 SI WA NOT_NAMED 1923-03-01 18:00:00 NR -33.7940 116.289 main 0 0 __________P___ -1 -33.7940 116.289 7 32 131
1923050S12152 1923 13 SI WA NOT_NAMED 1923-03-01 21:00:00 NR -34.7974 117.788 main 0 0 __________P___ -1 -34.7974 117.788 7 32 127
1923050S12152 1923 13 SI WA NOT_NAMED 1923-03-02 00:00:00 NR -35.7000 119.400 main 127 127 __________O___ -1 -35.7000 119.400 7 31 122
1923050S12152 1923 13 SI WA NOT_NAMED 1923-03-02 03:00:00 NR -36.4562 121.065 main 270 270 __________P___ -1 -36.4562 121.065 7 31 117
1923050S12152 1923 13 SI WA NOT_NAMED 1923-03-02 06:00:00 NR -37.1108 122.830 main 345 345 __________P___ -1 -37.1108 122.830 7 31 114
1923050S12152 1923 13 SI WA NOT_NAMED 1923-03-02 09:00:00 NR -37.7099 124.679 main 433 433 __________P___ -1 -37.7099 124.679 7 32 112
1923050S12152 1923 13 SI WA NOT_NAMED 1923-03-02 12:00:00 NR -38.3000 126.600 main 563 563 __________O___ -1 -38.3000 126.600 7 35 112
1923050S12152 1923 13 SI WA NOT_NAMED 1923-03-02 15:00:00 NR -39.0054 128.801 main 738 646 __________P___ -1 -39.0054 128.801 7 37 112
1923050S12152 1923 13 SI WA NOT_NAMED 1923-03-02 18:00:00 NR -39.6884 131.054 main 632 563 __________P___ -1 -39.6884 131.054 7 36 111
1923050S12152 1923 13 SI WA NOT_NAMED 1923-03-02 21:00:00 NR -40.2987 133.158 main 558 540 __________P___ -1 -40.2987 133.158 7 31 111
1923050S12152 1923 13 SI WA NOT_NAMED 1923-03-03 00:00:00 NR -40.8000 134.900 main 546 518 __________O___ -1 -40.8000 134.900 7 23 112
1923050S12152 1923 13 SP EA NOT_NAMED 1923-03-03 03:00:00 NR -41.1557 136.027 main 525 498 __________P___ -1 -41.1557 136.027 7 15 114
1923050S12152 1923 13 SP EA NOT_NAMED 1923-03-03 06:00:00 NR -41.4345 136.758 main 496 493 __________P___ -1 -41.4345 136.758 7 11 119
1923050S12152 1923 13 SP EA NOT_NAMED 1923-03-03 09:00:00 NR -41.6724 137.259 main 498 493 __________P___ -1 -41.6724 137.259 7 8 124
1923050S12152 1923 13 SP EA NOT_NAMED 1923-03-03 12:00:00 NR -41.9000 137.700 main 499 492 __________O___ -1 -41.9000 137.700 7 9 123
1923050S12152 1923 13 SP EA NOT_NAMED 1923-03-03 15:00:00 NR -42.1391 138.221 main 492 488 __________P___ -1 -42.1391 138.221 7 10 120
1923050S12152 1923 13 SP EA NOT_NAMED 1923-03-03 18:00:00 NR -42.3893 138.829 main 496 448 __________P___ -1 -42.3893 138.829 7 11 118
1923050S12152 1923 13 SP EA NOT_NAMED 1923-03-03 21:00:00 NR -42.6446 139.498 main 448 405 __________P___ -1 -42.6446 139.498 7 11 117
1923050S12152 1923 13 SP EA NOT_NAMED 1923-03-04 00:00:00 NR -42.9000 140.200 main 405 __________O___ -1 -42.9000 140.200 7 11 116

デジタル台風データ・検索

IBTrACS Databaseについて

本データベースは、米国NOAAが公開する1842年以降の世界の熱帯低気圧のベストトラックデータアーカイブInternational Best Track Archive for Climate Stewardship (IBTrACS)を、ウェブで閲覧しやすい形式に変換したものです。

最終更新日:2021-12-08